sensor_id;sensor_type;location;lat;lon;timestamp;P1;durP1;ratioP1;P2;durP2;ratioP2
938;SDS011;456;53.584;9.968;2023-04-15T00:00:29;4.13;;;3.50;;
938;SDS011;456;53.584;9.968;2023-04-15T00:02:54;4.17;;;3.80;;
938;SDS011;456;53.584;9.968;2023-04-15T00:05:20;4.30;;;3.90;;
938;SDS011;456;53.584;9.968;2023-04-15T00:07:46;4.67;;;4.27;;
938;SDS011;456;53.584;9.968;2023-04-15T00:10:12;4.43;;;4.03;;
938;SDS011;456;53.584;9.968;2023-04-15T00:12:38;4.40;;;4.00;;
938;SDS011;456;53.584;9.968;2023-04-15T00:15:05;4.97;;;3.60;;
938;SDS011;456;53.584;9.968;2023-04-15T00:17:33;4.57;;;4.17;;
938;SDS011;456;53.584;9.968;2023-04-15T00:19:58;4.73;;;4.27;;
938;SDS011;456;53.584;9.968;2023-04-15T00:22:25;4.50;;;4.10;;
938;SDS011;456;53.584;9.968;2023-04-15T00:24:51;4.77;;;4.10;;
938;SDS011;456;53.584;9.968;2023-04-15T00:27:17;4.50;;;4.00;;
938;SDS011;456;53.584;9.968;2023-04-15T00:29:43;4.17;;;3.77;;
938;SDS011;456;53.584;9.968;2023-04-15T00:32:09;4.00;;;3.60;;
938;SDS011;456;53.584;9.968;2023-04-15T00:34:34;4.20;;;3.90;;
938;SDS011;456;53.584;9.968;2023-04-15T00:37:00;3.70;;;3.40;;
938;SDS011;456;53.584;9.968;2023-04-15T00:39:26;4.50;;;4.07;;
938;SDS011;456;53.584;9.968;2023-04-15T00:41:52;5.70;;;4.17;;
938;SDS011;456;53.584;9.968;2023-04-15T00:44:18;4.90;;;4.50;;
938;SDS011;456;53.584;9.968;2023-04-15T00:46:44;5.00;;;4.27;;
938;SDS011;456;53.584;9.968;2023-04-15T00:49:10;4.57;;;4.03;;
938;SDS011;456;53.584;9.968;2023-04-15T00:51:37;3.87;;;3.57;;
938;SDS011;456;53.584;9.968;2023-04-15T00:54:03;4.10;;;3.57;;
938;SDS011;456;53.584;9.968;2023-04-15T00:56:29;3.60;;;3.30;;
938;SDS011;456;53.584;9.968;2023-04-15T00:58:55;4.30;;;3.90;;
938;SDS011;456;53.584;9.968;2023-04-15T01:01:22;4.20;;;3.80;;
938;SDS011;456;53.584;9.968;2023-04-15T01:03:49;4.03;;;3.70;;
938;SDS011;456;53.584;9.968;2023-04-15T01:06:16;4.03;;;3.63;;
938;SDS011;456;53.584;9.968;2023-04-15T01:08:42;4.10;;;3.70;;
938;SDS011;456;53.584;9.968;2023-04-15T01:11:09;3.77;;;3.47;;
938;SDS011;456;53.584;9.968;2023-04-15T01:13:36;4.10;;;3.70;;
938;SDS011;456;53.584;9.968;2023-04-15T01:16:02;3.43;;;3.17;;
938;SDS011;456;53.584;9.968;2023-04-15T01:18:28;4.10;;;3.40;;
938;SDS011;456;53.584;9.968;2023-04-15T01:20:54;3.47;;;3.17;;
938;SDS011;456;53.584;9.968;2023-04-15T01:23:20;3.03;;;2.83;;
938;SDS011;456;53.584;9.968;2023-04-15T01:25:47;5.83;;;2.70;;
938;SDS011;456;53.584;9.968;2023-04-15T01:28:14;3.47;;;3.17;;
938;SDS011;456;53.584;9.968;2023-04-15T01:30:40;3.33;;;3.03;;
938;SDS011;456;53.584;9.968;2023-04-15T01:33:05;3.10;;;2.77;;
938;SDS011;456;53.584;9.968;2023-04-15T01:35:31;2.63;;;2.43;;
938;SDS011;456;53.584;9.968;2023-04-15T01:38:03;3.20;;;2.90;;
938;SDS011;456;53.584;9.968;2023-04-15T01:40:30;2.90;;;2.70;;
938;SDS011;456;53.584;9.968;2023-04-15T01:42:56;3.50;;;2.60;;
938;SDS011;456;53.584;9.968;2023-04-15T01:45:22;3.50;;;3.20;;
938;SDS011;456;53.584;9.968;2023-04-15T01:47:47;2.77;;;2.57;;
938;SDS011;456;53.584;9.968;2023-04-15T01:50:13;2.43;;;2.23;;
938;SDS011;456;53.584;9.968;2023-04-15T01:52:39;2.53;;;2.33;;
938;SDS011;456;53.584;9.968;2023-04-15T01:55:05;2.77;;;2.47;;
938;SDS011;456;53.584;9.968;2023-04-15T01:57:32;2.50;;;2.30;;
938;SDS011;456;53.584;9.968;2023-04-15T01:59:58;3.00;;;2.70;;
938;SDS011;456;53.584;9.968;2023-04-15T02:02:24;2.80;;;2.50;;
938;SDS011;456;53.584;9.968;2023-04-15T02:04:49;2.33;;;2.13;;
938;SDS011;456;53.584;9.968;2023-04-15T02:07:15;2.33;;;2.10;;
938;SDS011;456;53.584;9.968;2023-04-15T02:09:41;2.20;;;2.10;;
938;SDS011;456;53.584;9.968;2023-04-15T02:12:07;2.23;;;2.03;;
938;SDS011;456;53.584;9.968;2023-04-15T02:14:33;2.67;;;2.17;;
938;SDS011;456;53.584;9.968;2023-04-15T02:16:58;3.30;;;2.00;;
938;SDS011;456;53.584;9.968;2023-04-15T02:19:31;2.90;;;2.47;;
938;SDS011;456;53.584;9.968;2023-04-15T02:21:59;2.20;;;2.07;;
938;SDS011;456;53.584;9.968;2023-04-15T02:24:29;2.33;;;2.13;;
938;SDS011;456;53.584;9.968;2023-04-15T02:26:55;2.30;;;2.10;;
938;SDS011;456;53.584;9.968;2023-04-15T02:29:20;2.23;;;2.10;;
938;SDS011;456;53.584;9.968;2023-04-15T02:31:47;2.33;;;2.13;;
938;SDS011;456;53.584;9.968;2023-04-15T02:34:13;2.93;;;2.10;;
938;SDS011;456;53.584;9.968;2023-04-15T02:36:38;2.40;;;2.20;;
938;SDS011;456;53.584;9.968;2023-04-15T02:39:05;2.13;;;1.93;;
938;SDS011;456;53.584;9.968;2023-04-15T02:41:30;2.50;;;1.97;;
938;SDS011;456;53.584;9.968;2023-04-15T02:43:56;2.17;;;1.97;;
938;SDS011;456;53.584;9.968;2023-04-15T02:46:22;2.20;;;2.00;;
938;SDS011;456;53.584;9.968;2023-04-15T02:48:48;2.00;;;1.80;;
938;SDS011;456;53.584;9.968;2023-04-15T02:53:40;2.17;;;1.97;;
938;SDS011;456;53.584;9.968;2023-04-15T02:56:06;2.23;;;2.03;;
938;SDS011;456;53.584;9.968;2023-04-15T02:58:32;2.63;;;2.43;;
938;SDS011;456;53.584;9.968;2023-04-15T03:00:59;2.20;;;2.00;;
938;SDS011;456;53.584;9.968;2023-04-15T03:03:25;2.40;;;2.20;;
938;SDS011;456;53.584;9.968;2023-04-15T03:05:52;2.30;;;2.10;;
938;SDS011;456;53.584;9.968;2023-04-15T03:08:18;2.90;;;2.20;;
938;SDS011;456;53.584;9.968;2023-04-15T03:10:45;2.07;;;1.93;;
938;SDS011;456;53.584;9.968;2023-04-15T03:13:11;2.23;;;1.87;;
938;SDS011;456;53.584;9.968;2023-04-15T03:15:37;2.30;;;2.10;;
938;SDS011;456;53.584;9.968;2023-04-15T03:18:02;2.40;;;2.20;;
938;SDS011;456;53.584;9.968;2023-04-15T03:20:28;2.80;;;2.00;;
938;SDS011;456;53.584;9.968;2023-04-15T03:22:53;2.97;;;2.57;;
938;SDS011;456;53.584;9.968;2023-04-15T03:25:19;2.80;;;2.03;;
938;SDS011;456;53.584;9.968;2023-04-15T03:27:45;2.67;;;2.30;;
938;SDS011;456;53.584;9.968;2023-04-15T03:30:11;2.53;;;2.33;;
938;SDS011;456;53.584;9.968;2023-04-15T03:32:37;2.57;;;2.37;;
938;SDS011;456;53.584;9.968;2023-04-15T03:35:03;2.10;;;1.90;;
938;SDS011;456;53.584;9.968;2023-04-15T03:37:29;2.03;;;1.93;;
938;SDS011;456;53.584;9.968;2023-04-15T03:39:55;2.37;;;2.17;;
938;SDS011;456;53.584;9.968;2023-04-15T03:42:20;2.70;;;2.50;;
938;SDS011;456;53.584;9.968;2023-04-15T03:44:46;2.20;;;2.00;;
938;SDS011;456;53.584;9.968;2023-04-15T03:47:11;2.20;;;2.00;;
938;SDS011;456;53.584;9.968;2023-04-15T03:49:37;2.77;;;2.57;;
938;SDS011;456;53.584;9.968;2023-04-15T03:52:02;2.27;;;2.07;;
938;SDS011;456;53.584;9.968;2023-04-15T03:54:28;2.60;;;2.40;;
938;SDS011;456;53.584;9.968;2023-04-15T03:56:54;2.53;;;2.33;;
938;SDS011;456;53.584;9.968;2023-04-15T03:59:20;1.90;;;1.80;;
938;SDS011;456;53.584;9.968;2023-04-15T04:01:46;2.33;;;2.10;;
938;SDS011;456;53.584;9.968;2023-04-15T04:04:11;2.30;;;2.10;;
938;SDS011;456;53.584;9.968;2023-04-15T04:06:37;2.20;;;2.00;;
938;SDS011;456;53.584;9.968;2023-04-15T04:09:03;2.07;;;1.87;;
938;SDS011;456;53.584;9.968;2023-04-15T04:11:29;2.03;;;1.93;;
938;SDS011;456;53.584;9.968;2023-04-15T04:13:54;2.90;;;2.63;;
938;SDS011;456;53.584;9.968;2023-04-15T04:16:20;2.40;;;2.20;;
938;SDS011;456;53.584;9.968;2023-04-15T04:18:45;2.70;;;2.50;;
938;SDS011;456;53.584;9.968;2023-04-15T04:21:11;2.83;;;2.50;;
938;SDS011;456;53.584;9.968;2023-04-15T04:23:37;2.30;;;2.10;;
938;SDS011;456;53.584;9.968;2023-04-15T04:26:02;2.10;;;1.70;;
938;SDS011;456;53.584;9.968;2023-04-15T04:28:28;2.40;;;2.20;;
938;SDS011;456;53.584;9.968;2023-04-15T04:30:53;2.37;;;2.17;;
938;SDS011;456;53.584;9.968;2023-04-15T04:33:19;2.40;;;2.20;;
938;SDS011;456;53.584;9.968;2023-04-15T04:35:45;1.90;;;1.80;;
938;SDS011;456;53.584;9.968;2023-04-15T04:38:11;2.40;;;2.20;;
938;SDS011;456;53.584;9.968;2023-04-15T04:40:36;2.10;;;2.00;;
938;SDS011;456;53.584;9.968;2023-04-15T04:43:02;2.30;;;2.10;;
938;SDS011;456;53.584;9.968;2023-04-15T04:45:27;2.27;;;2.07;;
938;SDS011;456;53.584;9.968;2023-04-15T04:47:53;2.70;;;2.43;;
938;SDS011;456;53.584;9.968;2023-04-15T04:50:18;2.20;;;2.00;;
938;SDS011;456;53.584;9.968;2023-04-15T04:52:44;2.20;;;2.00;;
938;SDS011;456;53.584;9.968;2023-04-15T04:55:10;2.67;;;2.47;;
938;SDS011;456;53.584;9.968;2023-04-15T04:57:35;1.40;;;1.30;;
938;SDS011;456;53.584;9.968;2023-04-15T05:00:02;2.83;;;2.07;;
938;SDS011;456;53.584;9.968;2023-04-15T05:02:28;2.43;;;2.23;;
938;SDS011;456;53.584;9.968;2023-04-15T05:04:54;2.00;;;1.73;;
938;SDS011;456;53.584;9.968;2023-04-15T05:07:20;2.10;;;1.90;;
938;SDS011;456;53.584;9.968;2023-04-15T05:09:46;1.90;;;1.80;;
938;SDS011;456;53.584;9.968;2023-04-15T05:12:12;1.90;;;1.67;;
938;SDS011;456;53.584;9.968;2023-04-15T05:14:40;2.30;;;2.10;;
938;SDS011;456;53.584;9.968;2023-04-15T05:17:06;2.13;;;1.93;;
938;SDS011;456;53.584;9.968;2023-04-15T05:19:32;2.40;;;2.20;;
938;SDS011;456;53.584;9.968;2023-04-15T05:21:58;1.97;;;1.87;;
938;SDS011;456;53.584;9.968;2023-04-15T05:24:24;1.93;;;1.60;;
938;SDS011;456;53.584;9.968;2023-04-15T05:26:50;2.00;;;1.80;;
938;SDS011;456;53.584;9.968;2023-04-15T05:29:15;1.60;;;1.50;;
938;SDS011;456;53.584;9.968;2023-04-15T05:31:41;1.90;;;1.80;;
938;SDS011;456;53.584;9.968;2023-04-15T05:34:07;2.00;;;1.80;;
938;SDS011;456;53.584;9.968;2023-04-15T05:36:32;1.97;;;1.80;;
938;SDS011;456;53.584;9.968;2023-04-15T05:38:58;1.73;;;1.50;;
938;SDS011;456;53.584;9.968;2023-04-15T05:41:23;2.10;;;1.53;;
938;SDS011;456;53.584;9.968;2023-04-15T05:43:49;1.43;;;1.33;;
938;SDS011;456;53.584;9.968;2023-04-15T05:46:15;2.17;;;1.77;;
938;SDS011;456;53.584;9.968;2023-04-15T05:48:40;1.63;;;1.53;;
938;SDS011;456;53.584;9.968;2023-04-15T05:51:06;1.77;;;1.57;;
938;SDS011;456;53.584;9.968;2023-04-15T05:53:32;1.80;;;1.43;;
938;SDS011;456;53.584;9.968;2023-04-15T05:55:57;2.10;;;1.90;;
938;SDS011;456;53.584;9.968;2023-04-15T05:58:23;1.90;;;1.43;;
938;SDS011;456;53.584;9.968;2023-04-15T06:00:48;1.20;;;1.10;;
938;SDS011;456;53.584;9.968;2023-04-15T06:03:14;1.67;;;1.57;;
938;SDS011;456;53.584;9.968;2023-04-15T06:05:40;1.30;;;1.20;;
938;SDS011;456;53.584;9.968;2023-04-15T06:08:06;1.30;;;1.20;;
938;SDS011;456;53.584;9.968;2023-04-15T06:10:33;1.30;;;1.20;;
938;SDS011;456;53.584;9.968;2023-04-15T06:13:00;1.57;;;1.47;;
938;SDS011;456;53.584;9.968;2023-04-15T06:15:29;1.47;;;1.37;;
938;SDS011;456;53.584;9.968;2023-04-15T06:17:55;1.80;;;1.30;;
938;SDS011;456;53.584;9.968;2023-04-15T06:20:21;1.73;;;1.40;;
938;SDS011;456;53.584;9.968;2023-04-15T06:22:47;1.80;;;1.43;;
938;SDS011;456;53.584;9.968;2023-04-15T06:25:12;1.40;;;1.20;;
938;SDS011;456;53.584;9.968;2023-04-15T06:27:38;1.57;;;1.47;;
938;SDS011;456;53.584;9.968;2023-04-15T06:30:03;1.73;;;1.63;;
938;SDS011;456;53.584;9.968;2023-04-15T06:32:31;1.30;;;1.20;;
938;SDS011;456;53.584;9.968;2023-04-15T06:34:56;2.00;;;1.70;;
938;SDS011;456;53.584;9.968;2023-04-15T06:37:22;1.60;;;1.50;;
938;SDS011;456;53.584;9.968;2023-04-15T06:39:47;2.00;;;1.80;;
938;SDS011;456;53.584;9.968;2023-04-15T06:42:13;2.10;;;1.90;;
938;SDS011;456;53.584;9.968;2023-04-15T06:44:39;2.07;;;1.87;;
938;SDS011;456;53.584;9.968;2023-04-15T06:47:05;2.20;;;2.00;;
938;SDS011;456;53.584;9.968;2023-04-15T06:49:30;1.93;;;1.73;;
938;SDS011;456;53.584;9.968;2023-04-15T06:51:56;2.47;;;1.90;;
938;SDS011;456;53.584;9.968;2023-04-15T06:54:21;1.83;;;1.63;;
938;SDS011;456;53.584;9.968;2023-04-15T06:56:47;2.10;;;1.90;;
938;SDS011;456;53.584;9.968;2023-04-15T06:59:13;2.30;;;2.10;;
938;SDS011;456;53.584;9.968;2023-04-15T07:01:41;2.37;;;2.00;;
938;SDS011;456;53.584;9.968;2023-04-15T07:04:07;2.03;;;1.83;;
938;SDS011;456;53.584;9.968;2023-04-15T07:06:33;1.70;;;1.50;;
938;SDS011;456;53.584;9.968;2023-04-15T07:08:59;1.77;;;1.60;;
938;SDS011;456;53.584;9.968;2023-04-15T07:11:25;1.70;;;1.60;;
938;SDS011;456;53.584;9.968;2023-04-15T07:13:51;2.33;;;2.00;;
938;SDS011;456;53.584;9.968;2023-04-15T07:16:16;2.50;;;2.30;;
938;SDS011;456;53.584;9.968;2023-04-15T07:18:42;1.67;;;1.57;;
938;SDS011;456;53.584;9.968;2023-04-15T07:21:08;2.20;;;2.00;;
938;SDS011;456;53.584;9.968;2023-04-15T07:23:33;1.83;;;1.70;;
938;SDS011;456;53.584;9.968;2023-04-15T07:25:59;2.17;;;1.97;;
938;SDS011;456;53.584;9.968;2023-04-15T07:28:25;2.13;;;1.93;;
938;SDS011;456;53.584;9.968;2023-04-15T07:30:51;2.00;;;1.80;;
938;SDS011;456;53.584;9.968;2023-04-15T07:33:16;2.33;;;2.13;;
938;SDS011;456;53.584;9.968;2023-04-15T07:35:42;1.90;;;1.80;;
938;SDS011;456;53.584;9.968;2023-04-15T07:38:09;2.13;;;1.93;;
938;SDS011;456;53.584;9.968;2023-04-15T07:40:37;2.17;;;1.97;;
938;SDS011;456;53.584;9.968;2023-04-15T07:43:03;2.30;;;2.10;;
938;SDS011;456;53.584;9.968;2023-04-15T07:45:29;2.37;;;2.17;;
938;SDS011;456;53.584;9.968;2023-04-15T07:47:55;2.93;;;2.43;;
938;SDS011;456;53.584;9.968;2023-04-15T07:50:21;2.93;;;2.63;;
938;SDS011;456;53.584;9.968;2023-04-15T07:52:48;3.20;;;2.27;;
938;SDS011;456;53.584;9.968;2023-04-15T07:55:16;3.70;;;3.40;;
938;SDS011;456;53.584;9.968;2023-04-15T07:57:44;3.20;;;2.43;;
938;SDS011;456;53.584;9.968;2023-04-15T08:00:11;4.03;;;3.63;;
938;SDS011;456;53.584;9.968;2023-04-15T08:02:37;3.70;;;3.40;;
938;SDS011;456;53.584;9.968;2023-04-15T08:05:03;3.70;;;3.40;;
938;SDS011;456;53.584;9.968;2023-04-15T08:07:29;3.80;;;3.50;;
938;SDS011;456;53.584;9.968;2023-04-15T08:09:55;4.33;;;3.93;;
938;SDS011;456;53.584;9.968;2023-04-15T08:12:20;4.70;;;3.70;;
938;SDS011;456;53.584;9.968;2023-04-15T08:14:46;3.67;;;3.33;;
938;SDS011;456;53.584;9.968;2023-04-15T08:17:12;5.73;;;4.70;;
938;SDS011;456;53.584;9.968;2023-04-15T08:19:39;6.90;;;4.90;;
938;SDS011;456;53.584;9.968;2023-04-15T08:22:04;5.00;;;4.47;;
938;SDS011;456;53.584;9.968;2023-04-15T08:24:30;8.90;;;5.07;;
938;SDS011;456;53.584;9.968;2023-04-15T08:26:56;7.00;;;4.87;;
938;SDS011;456;53.584;9.968;2023-04-15T08:29:22;5.53;;;4.90;;
938;SDS011;456;53.584;9.968;2023-04-15T08:31:47;5.63;;;5.13;;
938;SDS011;456;53.584;9.968;2023-04-15T08:34:13;6.57;;;4.93;;
938;SDS011;456;53.584;9.968;2023-04-15T08:36:39;6.97;;;4.73;;
938;SDS011;456;53.584;9.968;2023-04-15T08:39:05;6.27;;;4.90;;
938;SDS011;456;53.584;9.968;2023-04-15T08:41:33;5.90;;;4.30;;
938;SDS011;456;53.584;9.968;2023-04-15T08:44:04;6.00;;;5.40;;
938;SDS011;456;53.584;9.968;2023-04-15T08:46:31;5.07;;;4.57;;
938;SDS011;456;53.584;9.968;2023-04-15T08:49:02;5.90;;;5.20;;
938;SDS011;456;53.584;9.968;2023-04-15T08:51:29;5.27;;;4.87;;
938;SDS011;456;53.584;9.968;2023-04-15T08:53:55;5.23;;;4.73;;
938;SDS011;456;53.584;9.968;2023-04-15T08:56:25;5.60;;;5.00;;
938;SDS011;456;53.584;9.968;2023-04-15T08:58:52;5.50;;;5.00;;
938;SDS011;456;53.584;9.968;2023-04-15T09:01:18;5.37;;;4.87;;
938;SDS011;456;53.584;9.968;2023-04-15T09:03:44;5.73;;;5.13;;
938;SDS011;456;53.584;9.968;2023-04-15T09:06:12;5.43;;;4.93;;
938;SDS011;456;53.584;9.968;2023-04-15T09:08:40;6.00;;;5.40;;
938;SDS011;456;53.584;9.968;2023-04-15T09:11:06;5.40;;;4.80;;
938;SDS011;456;53.584;9.968;2023-04-15T09:13:32;5.70;;;5.07;;
938;SDS011;456;53.584;9.968;2023-04-15T09:16:00;5.47;;;4.97;;
938;SDS011;456;53.584;9.968;2023-04-15T09:18:31;5.90;;;5.03;;
938;SDS011;456;53.584;9.968;2023-04-15T09:21:05;5.20;;;4.70;;
938;SDS011;456;53.584;9.968;2023-04-15T09:23:39;6.60;;;5.93;;
938;SDS011;456;53.584;9.968;2023-04-15T09:26:05;5.70;;;5.03;;
938;SDS011;456;53.584;9.968;2023-04-15T09:28:31;6.50;;;5.37;;
938;SDS011;456;53.584;9.968;2023-04-15T09:30:57;6.17;;;5.57;;
938;SDS011;456;53.584;9.968;2023-04-15T09:33:24;6.03;;;5.43;;
938;SDS011;456;53.584;9.968;2023-04-15T09:36:03;6.17;;;5.53;;
938;SDS011;456;53.584;9.968;2023-04-15T09:38:30;5.90;;;5.40;;
938;SDS011;456;53.584;9.968;2023-04-15T09:40:56;7.70;;;5.80;;
938;SDS011;456;53.584;9.968;2023-04-15T09:43:36;7.00;;;6.13;;
938;SDS011;456;53.584;9.968;2023-04-15T09:46:04;6.90;;;5.93;;
938;SDS011;456;53.584;9.968;2023-04-15T09:48:30;5.90;;;5.30;;
938;SDS011;456;53.584;9.968;2023-04-15T09:50:59;8.50;;;6.30;;
938;SDS011;456;53.584;9.968;2023-04-15T09:53:26;6.77;;;6.17;;
938;SDS011;456;53.584;9.968;2023-04-15T09:58:19;6.87;;;6.27;;
938;SDS011;456;53.584;9.968;2023-04-15T10:00:46;6.33;;;5.73;;
938;SDS011;456;53.584;9.968;2023-04-15T10:03:14;7.73;;;6.30;;
938;SDS011;456;53.584;9.968;2023-04-15T10:05:44;6.80;;;6.03;;
938;SDS011;456;53.584;9.968;2023-04-15T10:08:11;7.43;;;6.20;;
938;SDS011;456;53.584;9.968;2023-04-15T10:10:37;8.60;;;6.93;;
938;SDS011;456;53.584;9.968;2023-04-15T10:13:04;7.70;;;7.00;;
938;SDS011;456;53.584;9.968;2023-04-15T10:15:31;7.23;;;6.53;;
938;SDS011;456;53.584;9.968;2023-04-15T10:17:57;7.60;;;6.90;;
938;SDS011;456;53.584;9.968;2023-04-15T10:20:25;6.80;;;6.20;;
938;SDS011;456;53.584;9.968;2023-04-15T10:22:52;8.53;;;7.03;;
938;SDS011;456;53.584;9.968;2023-04-15T10:25:18;7.63;;;6.93;;
938;SDS011;456;53.584;9.968;2023-04-15T10:27:45;7.20;;;6.47;;
938;SDS011;456;53.584;9.968;2023-04-15T10:30:12;8.23;;;7.50;;
938;SDS011;456;53.584;9.968;2023-04-15T10:32:39;8.60;;;7.53;;
938;SDS011;456;53.584;9.968;2023-04-15T10:35:05;8.90;;;8.00;;
938;SDS011;456;53.584;9.968;2023-04-15T10:37:33;8.30;;;7.50;;
938;SDS011;456;53.584;9.968;2023-04-15T10:40:05;8.63;;;7.70;;
938;SDS011;456;53.584;9.968;2023-04-15T10:42:55;9.30;;;8.40;;
938;SDS011;456;53.584;9.968;2023-04-15T10:45:25;9.30;;;8.40;;
938;SDS011;456;53.584;9.968;2023-04-15T10:48:01;10.60;;;8.57;;
938;SDS011;456;53.584;9.968;2023-04-15T10:50:30;9.33;;;8.37;;
938;SDS011;456;53.584;9.968;2023-04-15T10:52:56;10.70;;;9.27;;
938;SDS011;456;53.584;9.968;2023-04-15T10:55:23;10.40;;;9.40;;
938;SDS011;456;53.584;9.968;2023-04-15T10:57:59;9.60;;;8.70;;
938;SDS011;456;53.584;9.968;2023-04-15T11:00:30;10.30;;;9.20;;
938;SDS011;456;53.584;9.968;2023-04-15T11:02:57;11.20;;;9.43;;
938;SDS011;456;53.584;9.968;2023-04-15T11:08:15;10.00;;;8.77;;
938;SDS011;456;53.584;9.968;2023-04-15T11:18:12;11.07;;;9.73;;
938;SDS011;456;53.584;9.968;2023-04-15T11:20:51;11.07;;;9.90;;
938;SDS011;456;53.584;9.968;2023-04-15T11:23:30;12.67;;;11.33;;
938;SDS011;456;53.584;9.968;2023-04-15T11:26:01;11.00;;;10.00;;
938;SDS011;456;53.584;9.968;2023-04-15T11:28:30;14.60;;;12.67;;
938;SDS011;456;53.584;9.968;2023-04-15T11:30:57;12.60;;;11.40;;
938;SDS011;456;53.584;9.968;2023-04-15T11:33:29;13.73;;;11.53;;
938;SDS011;456;53.584;9.968;2023-04-15T11:35:55;11.87;;;10.77;;
938;SDS011;456;53.584;9.968;2023-04-15T11:38:20;12.77;;;11.43;;
938;SDS011;456;53.584;9.968;2023-04-15T11:40:46;11.77;;;10.60;;
938;SDS011;456;53.584;9.968;2023-04-15T11:43:15;13.50;;;12.13;;
938;SDS011;456;53.584;9.968;2023-04-15T11:45:56;12.47;;;11.37;;
938;SDS011;456;53.584;9.968;2023-04-15T11:48:24;13.87;;;12.57;;
938;SDS011;456;53.584;9.968;2023-04-15T11:50:56;13.43;;;12.10;;
938;SDS011;456;53.584;9.968;2023-04-15T11:53:48;13.03;;;11.73;;
938;SDS011;456;53.584;9.968;2023-04-15T11:56:20;13.43;;;12.07;;
938;SDS011;456;53.584;9.968;2023-04-15T11:58:47;14.57;;;13.10;;
938;SDS011;456;53.584;9.968;2023-04-15T12:01:15;12.70;;;11.43;;
938;SDS011;456;53.584;9.968;2023-04-15T12:03:44;12.87;;;11.67;;
938;SDS011;456;53.584;9.968;2023-04-15T12:13:52;12.57;;;11.27;;
938;SDS011;456;53.584;9.968;2023-04-15T12:16:19;13.17;;;11.97;;
938;SDS011;456;53.584;9.968;2023-04-15T12:18:45;13.10;;;11.80;;
938;SDS011;456;53.584;9.968;2023-04-15T12:21:12;14.40;;;13.00;;
938;SDS011;456;53.584;9.968;2023-04-15T12:23:47;13.47;;;12.00;;
938;SDS011;456;53.584;9.968;2023-04-15T12:26:14;13.47;;;12.07;;
938;SDS011;456;53.584;9.968;2023-04-15T12:28:41;13.30;;;12.07;;
938;SDS011;456;53.584;9.968;2023-04-15T12:31:07;12.40;;;11.40;;
938;SDS011;456;53.584;9.968;2023-04-15T12:33:36;13.37;;;11.57;;
938;SDS011;456;53.584;9.968;2023-04-15T12:36:03;11.90;;;10.80;;
938;SDS011;456;53.584;9.968;2023-04-15T12:38:29;12.33;;;11.20;;
938;SDS011;456;53.584;9.968;2023-04-15T12:40:55;11.20;;;10.30;;
938;SDS011;456;53.584;9.968;2023-04-15T12:43:24;11.07;;;10.07;;
938;SDS011;456;53.584;9.968;2023-04-15T12:45:50;11.80;;;10.80;;
938;SDS011;456;53.584;9.968;2023-04-15T12:48:15;11.73;;;10.67;;
938;SDS011;456;53.584;9.968;2023-04-15T12:50:41;12.13;;;11.03;;
938;SDS011;456;53.584;9.968;2023-04-15T12:53:06;11.60;;;10.60;;
938;SDS011;456;53.584;9.968;2023-04-15T12:55:33;11.57;;;10.57;;
938;SDS011;456;53.584;9.968;2023-04-15T12:57:58;11.83;;;10.80;;
938;SDS011;456;53.584;9.968;2023-04-15T13:00:24;11.57;;;10.33;;
938;SDS011;456;53.584;9.968;2023-04-15T13:02:49;10.73;;;9.77;;
938;SDS011;456;53.584;9.968;2023-04-15T13:05:15;12.40;;;11.30;;
938;SDS011;456;53.584;9.968;2023-04-15T13:07:41;11.10;;;10.20;;
938;SDS011;456;53.584;9.968;2023-04-15T13:10:07;10.80;;;9.90;;
938;SDS011;456;53.584;9.968;2023-04-15T13:12:33;10.30;;;9.40;;
938;SDS011;456;53.584;9.968;2023-04-15T13:15:02;11.03;;;10.03;;
938;SDS011;456;53.584;9.968;2023-04-15T13:17:28;11.00;;;10.00;;
938;SDS011;456;53.584;9.968;2023-04-15T13:19:54;10.73;;;9.83;;
938;SDS011;456;53.584;9.968;2023-04-15T13:22:21;9.73;;;8.93;;
938;SDS011;456;53.584;9.968;2023-04-15T13:24:46;9.70;;;8.90;;
938;SDS011;456;53.584;9.968;2023-04-15T13:27:12;9.83;;;8.93;;
938;SDS011;456;53.584;9.968;2023-04-15T13:29:37;11.40;;;10.40;;
938;SDS011;456;53.584;9.968;2023-04-15T13:32:04;9.73;;;8.90;;
938;SDS011;456;53.584;9.968;2023-04-15T13:34:30;9.67;;;8.87;;
938;SDS011;456;53.584;9.968;2023-04-15T13:36:56;9.63;;;8.73;;
938;SDS011;456;53.584;9.968;2023-04-15T13:39:21;9.60;;;8.80;;
938;SDS011;456;53.584;9.968;2023-04-15T13:41:47;8.33;;;7.63;;
938;SDS011;456;53.584;9.968;2023-04-15T13:44:13;11.00;;;9.90;;
938;SDS011;456;53.584;9.968;2023-04-15T13:46:38;10.20;;;9.30;;
938;SDS011;456;53.584;9.968;2023-04-15T13:49:06;9.10;;;8.30;;
938;SDS011;456;53.584;9.968;2023-04-15T13:51:31;10.30;;;9.40;;
938;SDS011;456;53.584;9.968;2023-04-15T13:53:57;9.77;;;8.97;;
938;SDS011;456;53.584;9.968;2023-04-15T13:56:23;9.80;;;8.93;;
938;SDS011;456;53.584;9.968;2023-04-15T13:58:48;9.03;;;8.30;;
938;SDS011;456;53.584;9.968;2023-04-15T14:01:14;10.23;;;9.43;;
938;SDS011;456;53.584;9.968;2023-04-15T14:03:40;9.53;;;8.70;;
938;SDS011;456;53.584;9.968;2023-04-15T14:06:05;8.60;;;7.90;;
938;SDS011;456;53.584;9.968;2023-04-15T14:08:31;10.33;;;9.37;;
938;SDS011;456;53.584;9.968;2023-04-15T14:10:57;9.10;;;8.20;;
938;SDS011;456;53.584;9.968;2023-04-15T14:13:23;9.23;;;8.43;;
938;SDS011;456;53.584;9.968;2023-04-15T14:15:48;9.63;;;8.83;;
938;SDS011;456;53.584;9.968;2023-04-15T14:18:14;8.67;;;7.87;;
938;SDS011;456;53.584;9.968;2023-04-15T14:20:40;9.90;;;8.97;;
938;SDS011;456;53.584;9.968;2023-04-15T14:23:05;7.90;;;7.20;;
938;SDS011;456;53.584;9.968;2023-04-15T14:25:31;8.87;;;8.17;;
938;SDS011;456;53.584;9.968;2023-04-15T14:27:56;9.07;;;8.20;;
938;SDS011;456;53.584;9.968;2023-04-15T14:30:22;9.97;;;9.07;;
938;SDS011;456;53.584;9.968;2023-04-15T14:32:47;8.87;;;8.07;;
938;SDS011;456;53.584;9.968;2023-04-15T14:35:13;8.43;;;7.73;;
938;SDS011;456;53.584;9.968;2023-04-15T14:37:39;8.90;;;8.20;;
938;SDS011;456;53.584;9.968;2023-04-15T14:40:04;8.43;;;7.73;;
938;SDS011;456;53.584;9.968;2023-04-15T14:42:30;8.10;;;7.40;;
938;SDS011;456;53.584;9.968;2023-04-15T14:44:56;8.43;;;7.70;;
938;SDS011;456;53.584;9.968;2023-04-15T14:47:21;8.67;;;7.87;;
938;SDS011;456;53.584;9.968;2023-04-15T14:49:47;9.10;;;8.30;;
938;SDS011;456;53.584;9.968;2023-04-15T14:52:13;8.80;;;8.10;;
938;SDS011;456;53.584;9.968;2023-04-15T14:54:38;8.10;;;7.43;;
938;SDS011;456;53.584;9.968;2023-04-15T14:57:04;8.83;;;8.13;;
938;SDS011;456;53.584;9.968;2023-04-15T14:59:29;8.80;;;8.00;;
938;SDS011;456;53.584;9.968;2023-04-15T15:01:55;8.43;;;7.70;;
938;SDS011;456;53.584;9.968;2023-04-15T15:04:21;8.10;;;7.40;;
938;SDS011;456;53.584;9.968;2023-04-15T15:06:46;8.20;;;7.33;;
938;SDS011;456;53.584;9.968;2023-04-15T15:09:12;9.10;;;8.20;;
938;SDS011;456;53.584;9.968;2023-04-15T15:11:37;9.37;;;8.47;;
938;SDS011;456;53.584;9.968;2023-04-15T15:14:03;8.93;;;8.13;;
938;SDS011;456;53.584;9.968;2023-04-15T15:16:28;7.77;;;7.17;;
938;SDS011;456;53.584;9.968;2023-04-15T15:18:54;8.53;;;7.83;;
938;SDS011;456;53.584;9.968;2023-04-15T15:21:20;8.23;;;7.53;;
938;SDS011;456;53.584;9.968;2023-04-15T15:23:45;7.83;;;7.23;;
938;SDS011;456;53.584;9.968;2023-04-15T15:26:12;7.33;;;6.73;;
938;SDS011;456;53.584;9.968;2023-04-15T15:28:38;7.67;;;6.97;;
938;SDS011;456;53.584;9.968;2023-04-15T15:31:04;7.70;;;7.10;;
938;SDS011;456;53.584;9.968;2023-04-15T15:33:30;8.10;;;7.50;;
938;SDS011;456;53.584;9.968;2023-04-15T15:35:56;8.47;;;7.57;;
938;SDS011;456;53.584;9.968;2023-04-15T15:38:22;7.40;;;6.80;;
938;SDS011;456;53.584;9.968;2023-04-15T15:40:48;7.13;;;6.63;;
938;SDS011;456;53.584;9.968;2023-04-15T15:43:13;8.10;;;7.40;;
938;SDS011;456;53.584;9.968;2023-04-15T15:45:39;7.50;;;6.90;;
938;SDS011;456;53.584;9.968;2023-04-15T15:48:05;8.20;;;7.60;;
938;SDS011;456;53.584;9.968;2023-04-15T15:50:31;8.37;;;7.67;;
938;SDS011;456;53.584;9.968;2023-04-15T15:52:58;7.50;;;6.90;;
938;SDS011;456;53.584;9.968;2023-04-15T15:55:23;7.40;;;6.80;;
938;SDS011;456;53.584;9.968;2023-04-15T15:57:51;8.10;;;7.50;;
938;SDS011;456;53.584;9.968;2023-04-15T16:00:17;8.10;;;7.40;;